sensor_id;sensor_type;location;lat;lon;timestamp;temperature;humidity
69823;SHT31;57119;52.516;13.508;2022-11-20T00:01:07;0.48;99.99
69823;SHT31;57119;52.516;13.508;2022-11-20T00:03:36;0.50;99.99
69823;SHT31;57119;52.516;13.508;2022-11-20T00:06:07;0.47;99.99
69823;SHT31;57119;52.516;13.508;2022-11-20T00:08:33;0.48;99.99
69823;SHT31;57119;52.516;13.508;2022-11-20T00:11:13;0.45;99.99
69823;SHT31;57119;52.516;13.508;2022-11-20T00:13:38;0.43;99.99
69823;SHT31;57119;52.516;13.508;2022-11-20T00:16:05;0.47;99.99
69823;SHT31;57119;52.516;13.508;2022-11-20T00:18:35;0.44;99.99
69823;SHT31;57119;52.516;13.508;2022-11-20T00:21:02;0.41;99.99
69823;SHT31;57119;52.516;13.508;2022-11-20T00:23:28;0.34;99.99
69823;SHT31;57119;52.516;13.508;2022-11-20T00:25:53;0.38;99.99
69823;SHT31;57119;52.516;13.508;2022-11-20T00:28:19;0.34;99.99
69823;SHT31;57119;52.516;13.508;2022-11-20T00:30:44;0.34;99.99
69823;SHT31;57119;52.516;13.508;2022-11-20T00:33:10;0.36;99.99
69823;SHT31;57119;52.516;13.508;2022-11-20T00:35:36;0.40;99.99
69823;SHT31;57119;52.516;13.508;2022-11-20T00:38:01;0.38;99.99
69823;SHT31;57119;52.516;13.508;2022-11-20T00:40:27;0.36;99.99
69823;SHT31;57119;52.516;13.508;2022-11-20T00:42:52;0.37;99.99
69823;SHT31;57119;52.516;13.508;2022-11-20T00:45:18;0.34;99.99
69823;SHT31;57119;52.516;13.508;2022-11-20T00:47:44;0.38;99.99
69823;SHT31;57119;52.516;13.508;2022-11-20T00:50:09;0.34;99.99
69823;SHT31;57119;52.516;13.508;2022-11-20T00:52:34;0.31;99.99
69823;SHT31;57119;52.516;13.508;2022-11-20T00:55:00;0.33;99.99
69823;SHT31;57119;52.516;13.508;2022-11-20T00:57:25;0.30;99.99
69823;SHT31;57119;52.516;13.508;2022-11-20T00:59:50;0.33;99.99
69823;SHT31;57119;52.516;13.508;2022-11-20T01:02:16;0.33;99.99
69823;SHT31;57119;52.516;13.508;2022-11-20T01:04:42;0.33;99.99
69823;SHT31;57119;52.516;13.508;2022-11-20T01:07:07;0.36;99.99
69823;SHT31;57119;52.516;13.508;2022-11-20T01:09:32;0.27;99.99
69823;SHT31;57119;52.516;13.508;2022-11-20T01:11:58;0.33;99.99
69823;SHT31;57119;52.516;13.508;2022-11-20T01:14:24;0.27;99.99
69823;SHT31;57119;52.516;13.508;2022-11-20T01:16:50;0.34;99.99
69823;SHT31;57119;52.516;13.508;2022-11-20T01:19:21;0.36;99.99
69823;SHT31;57119;52.516;13.508;2022-11-20T01:21:49;0.43;99.99
69823;SHT31;57119;52.516;13.508;2022-11-20T01:24:17;0.40;99.99
69823;SHT31;57119;52.516;13.508;2022-11-20T01:26:44;0.40;99.99
69823;SHT31;57119;52.516;13.508;2022-11-20T01:29:14;0.43;99.99
69823;SHT31;57119;52.516;13.508;2022-11-20T01:31:40;0.40;99.99
69823;SHT31;57119;52.516;13.508;2022-11-20T01:34:13;0.40;99.99
69823;SHT31;57119;52.516;13.508;2022-11-20T01:36:39;0.37;99.99
69823;SHT31;57119;52.516;13.508;2022-11-20T01:41:38;0.43;99.99
69823;SHT31;57119;52.516;13.508;2022-11-20T01:47:24;0.36;99.99
69823;SHT31;57119;52.516;13.508;2022-11-20T01:49:55;0.33;99.99
69823;SHT31;57119;52.516;13.508;2022-11-20T01:52:34;0.37;99.99
69823;SHT31;57119;52.516;13.508;2022-11-20T01:55:07;0.37;99.99
69823;SHT31;57119;52.516;13.508;2022-11-20T01:57:34;0.43;99.99
69823;SHT31;57119;52.516;13.508;2022-11-20T02:00:12;0.38;99.99
69823;SHT31;57119;52.516;13.508;2022-11-20T02:02:39;0.37;99.99
69823;SHT31;57119;52.516;13.508;2022-11-20T02:05:18;0.30;99.99
69823;SHT31;57119;52.516;13.508;2022-11-20T02:07:46;0.34;99.93
69823;SHT31;57119;52.516;13.508;2022-11-20T02:10:12;0.36;99.90
69823;SHT31;57119;52.516;13.508;2022-11-20T02:12:37;0.34;99.70
69823;SHT31;57119;52.516;13.508;2022-11-20T02:15:21;0.27;99.99
69823;SHT31;57119;52.516;13.508;2022-11-20T02:17:46;0.21;99.99
69823;SHT31;57119;52.516;13.508;2022-11-20T02:20:12;0.11;99.99
69823;SHT31;57119;52.516;13.508;2022-11-20T02:23:05;0.21;99.99
69823;SHT31;57119;52.516;13.508;2022-11-20T02:25:29;0.26;99.53
69823;SHT31;57119;52.516;13.508;2022-11-20T02:27:56;0.21;99.95
69823;SHT31;57119;52.516;13.508;2022-11-20T02:30:21;0.20;99.64
69823;SHT31;57119;52.516;13.508;2022-11-20T02:32:46;0.13;99.99
69823;SHT31;57119;52.516;13.508;2022-11-20T02:37:44;0.13;99.99
69823;SHT31;57119;52.516;13.508;2022-11-20T02:40:12;0.18;99.59
69823;SHT31;57119;52.516;13.508;2022-11-20T02:42:38;0.16;99.62
69823;SHT31;57119;52.516;13.508;2022-11-20T02:45:04;0.21;99.61
69823;SHT31;57119;52.516;13.508;2022-11-20T02:47:30;0.20;99.81
69823;SHT31;57119;52.516;13.508;2022-11-20T02:49:55;0.21;99.18
69823;SHT31;57119;52.516;13.508;2022-11-20T02:52:21;0.24;99.20
69823;SHT31;57119;52.516;13.508;2022-11-20T02:54:46;0.24;98.53
69823;SHT31;57119;52.516;13.508;2022-11-20T02:57:12;0.21;98.42
69823;SHT31;57119;52.516;13.508;2022-11-20T02:59:37;0.16;98.26
69823;SHT31;57119;52.516;13.508;2022-11-20T03:02:02;0.06;98.62
69823;SHT31;57119;52.516;13.508;2022-11-20T03:04:28;0.16;98.15
69823;SHT31;57119;52.516;13.508;2022-11-20T03:06:53;0.13;98.38
69823;SHT31;57119;52.516;13.508;2022-11-20T03:09:18;0.13;98.51
69823;SHT31;57119;52.516;13.508;2022-11-20T03:11:44;0.11;98.50
69823;SHT31;57119;52.516;13.508;2022-11-20T03:14:09;0.00;99.16
69823;SHT31;57119;52.516;13.508;2022-11-20T03:16:35;0.07;98.58
69823;SHT31;57119;52.516;13.508;2022-11-20T03:19:00;0.13;98.69
69823;SHT31;57119;52.516;13.508;2022-11-20T03:21:26;0.16;98.85
69823;SHT31;57119;52.516;13.508;2022-11-20T03:23:53;0.11;98.29
69823;SHT31;57119;52.516;13.508;2022-11-20T03:26:25;0.07;98.84
69823;SHT31;57119;52.516;13.508;2022-11-20T03:28:52;0.06;98.50
69823;SHT31;57119;52.516;13.508;2022-11-20T03:31:21;0.05;98.27
69823;SHT31;57119;52.516;13.508;2022-11-20T03:33:46;0.02;98.86
69823;SHT31;57119;52.516;13.508;2022-11-20T03:36:14;0.03;98.76
69823;SHT31;57119;52.516;13.508;2022-11-20T03:38:40;0.03;98.62
69823;SHT31;57119;52.516;13.508;2022-11-20T03:41:11;0.00;98.82
69823;SHT31;57119;52.516;13.508;2022-11-20T03:43:38;-0.08;99.21
69823;SHT31;57119;52.516;13.508;2022-11-20T03:46:04;-0.04;99.32
69823;SHT31;57119;52.516;13.508;2022-11-20T03:48:30;0.02;99.41
69823;SHT31;57119;52.516;13.508;2022-11-20T03:51:09;-0.08;98.98
69823;SHT31;57119;52.516;13.508;2022-11-20T03:53:35;-0.07;98.83
69823;SHT31;57119;52.516;13.508;2022-11-20T03:56:00;-0.14;99.23
69823;SHT31;57119;52.516;13.508;2022-11-20T03:58:25;0.02;99.09
69823;SHT31;57119;52.516;13.508;2022-11-20T04:00:51;0.03;98.96
69823;SHT31;57119;52.516;13.508;2022-11-20T04:03:16;-0.04;99.04
69823;SHT31;57119;52.516;13.508;2022-11-20T04:05:42;0.06;99.22
69823;SHT31;57119;52.516;13.508;2022-11-20T04:08:07;0.07;98.94
69823;SHT31;57119;52.516;13.508;2022-11-20T04:10:33;0.06;98.73
69823;SHT31;57119;52.516;13.508;2022-11-20T04:12:58;0.00;98.92
69823;SHT31;57119;52.516;13.508;2022-11-20T04:15:24;0.09;98.76
69823;SHT31;57119;52.516;13.508;2022-11-20T04:17:49;0.07;98.40
69823;SHT31;57119;52.516;13.508;2022-11-20T04:20:14;0.06;98.62
69823;SHT31;57119;52.516;13.508;2022-11-20T04:22:40;-0.03;98.96
69823;SHT31;57119;52.516;13.508;2022-11-20T04:25:05;0.10;98.94
69823;SHT31;57119;52.516;13.508;2022-11-20T04:27:31;-0.04;98.81
69823;SHT31;57119;52.516;13.508;2022-11-20T04:29:56;-0.08;98.51
69823;SHT31;57119;52.516;13.508;2022-11-20T04:32:21;-0.03;98.57
69823;SHT31;57119;52.516;13.508;2022-11-20T04:34:47;-0.18;98.68
69823;SHT31;57119;52.516;13.508;2022-11-20T04:37:12;-0.18;98.62
69823;SHT31;57119;52.516;13.508;2022-11-20T04:39:37;-0.14;98.62
69823;SHT31;57119;52.516;13.508;2022-11-20T04:42:03;-0.07;98.54
69823;SHT31;57119;52.516;13.508;2022-11-20T04:44:47;-0.11;98.41
69823;SHT31;57119;52.516;13.508;2022-11-20T04:47:12;-0.17;98.82
69823;SHT31;57119;52.516;13.508;2022-11-20T04:49:37;-0.18;98.68
69823;SHT31;57119;52.516;13.508;2022-11-20T04:52:03;-0.24;98.18
69823;SHT31;57119;52.516;13.508;2022-11-20T04:54:28;-0.28;98.41
69823;SHT31;57119;52.516;13.508;2022-11-20T04:56:53;-0.32;98.50
69823;SHT31;57119;52.516;13.508;2022-11-20T04:59:19;-0.36;98.65
69823;SHT31;57119;52.516;13.508;2022-11-20T05:01:44;-0.42;98.82
69823;SHT31;57119;52.516;13.508;2022-11-20T05:04:09;-0.43;98.81
69823;SHT31;57119;52.516;13.508;2022-11-20T05:06:35;-0.42;98.91
69823;SHT31;57119;52.516;13.508;2022-11-20T05:09:01;-0.42;99.03
69823;SHT31;57119;52.516;13.508;2022-11-20T05:11:27;-0.41;99.14
69823;SHT31;57119;52.516;13.508;2022-11-20T05:13:54;-0.38;98.94
69823;SHT31;57119;52.516;13.508;2022-11-20T05:16:23;-0.38;98.81
69823;SHT31;57119;52.516;13.508;2022-11-20T05:18:50;-0.39;99.22
69823;SHT31;57119;52.516;13.508;2022-11-20T05:21:16;-0.38;99.01
69823;SHT31;57119;52.516;13.508;2022-11-20T05:23:42;-0.36;99.24
69823;SHT31;57119;52.516;13.508;2022-11-20T05:26:12;-0.38;99.02
69823;SHT31;57119;52.516;13.508;2022-11-20T05:28:38;-0.34;98.88
69823;SHT31;57119;52.516;13.508;2022-11-20T05:31:08;-0.31;99.00
69823;SHT31;57119;52.516;13.508;2022-11-20T05:33:35;-0.28;98.79
69823;SHT31;57119;52.516;13.508;2022-11-20T05:36:02;-0.25;98.82
69823;SHT31;57119;52.516;13.508;2022-11-20T05:38:28;-0.28;99.01
69823;SHT31;57119;52.516;13.508;2022-11-20T05:40:54;-0.24;98.68
69823;SHT31;57119;52.516;13.508;2022-11-20T05:43:19;-0.28;99.06
69823;SHT31;57119;52.516;13.508;2022-11-20T05:45:54;-0.25;98.95
69823;SHT31;57119;52.516;13.508;2022-11-20T05:48:20;-0.19;98.61
69823;SHT31;57119;52.516;13.508;2022-11-20T05:50:46;-0.19;98.76
69823;SHT31;57119;52.516;13.508;2022-11-20T05:53:12;-0.18;98.72
69823;SHT31;57119;52.516;13.508;2022-11-20T05:55:37;-0.28;99.18
69823;SHT31;57119;52.516;13.508;2022-11-20T05:58:02;-0.18;99.19
69823;SHT31;57119;52.516;13.508;2022-11-20T06:00:28;-0.14;99.05
69823;SHT31;57119;52.516;13.508;2022-11-20T06:02:53;-0.14;99.11
69823;SHT31;57119;52.516;13.508;2022-11-20T06:05:18;-0.24;99.30
69823;SHT31;57119;52.516;13.508;2022-11-20T06:07:44;-0.19;99.03
69823;SHT31;57119;52.516;13.508;2022-11-20T06:10:09;-0.13;98.87
69823;SHT31;57119;52.516;13.508;2022-11-20T06:12:35;-0.17;99.07
69823;SHT31;57119;52.516;13.508;2022-11-20T06:15:00;-0.19;99.19
69823;SHT31;57119;52.516;13.508;2022-11-20T06:17:26;-0.18;99.39
69823;SHT31;57119;52.516;13.508;2022-11-20T06:19:51;-0.17;99.49
69823;SHT31;57119;52.516;13.508;2022-11-20T06:22:16;-0.22;99.48
69823;SHT31;57119;52.516;13.508;2022-11-20T06:24:42;-0.17;99.11
69823;SHT31;57119;52.516;13.508;2022-11-20T06:27:07;-0.10;99.15
69823;SHT31;57119;52.516;13.508;2022-11-20T06:29:32;-0.13;99.13
69823;SHT31;57119;52.516;13.508;2022-11-20T06:31:58;-0.08;99.03
69823;SHT31;57119;52.516;13.508;2022-11-20T06:34:23;-0.11;98.75
69823;SHT31;57119;52.516;13.508;2022-11-20T06:36:48;-0.15;98.74
69823;SHT31;57119;52.516;13.508;2022-11-20T06:39:14;-0.25;98.69
69823;SHT31;57119;52.516;13.508;2022-11-20T06:41:39;-0.21;98.57
69823;SHT31;57119;52.516;13.508;2022-11-20T06:44:05;-0.17;98.55
69823;SHT31;57119;52.516;13.508;2022-11-20T06:46:31;-0.15;98.37
69823;SHT31;57119;52.516;13.508;2022-11-20T06:48:56;-0.14;98.29
69823;SHT31;57119;52.516;13.508;2022-11-20T06:51:23;-0.14;98.20
69823;SHT31;57119;52.516;13.508;2022-11-20T06:53:48;-0.22;98.42
69823;SHT31;57119;52.516;13.508;2022-11-20T06:56:13;-0.24;98.66
69823;SHT31;57119;52.516;13.508;2022-11-20T06:58:39;-0.28;98.94
69823;SHT31;57119;52.516;13.508;2022-11-20T07:01:10;-0.21;98.75
69823;SHT31;57119;52.516;13.508;2022-11-20T07:03:36;-0.08;98.29
69823;SHT31;57119;52.516;13.508;2022-11-20T07:06:02;-0.15;97.97
69823;SHT31;57119;52.516;13.508;2022-11-20T07:08:28;-0.11;98.28
69823;SHT31;57119;52.516;13.508;2022-11-20T07:11:00;-0.14;98.05
69823;SHT31;57119;52.516;13.508;2022-11-20T07:13:27;-0.10;97.99
69823;SHT31;57119;52.516;13.508;2022-11-20T07:15:52;-0.10;97.85
69823;SHT31;57119;52.516;13.508;2022-11-20T07:18:18;-0.15;97.88
69823;SHT31;57119;52.516;13.508;2022-11-20T07:20:43;-0.14;97.70
69823;SHT31;57119;52.516;13.508;2022-11-20T07:23:08;-0.15;98.26
69823;SHT31;57119;52.516;13.508;2022-11-20T07:25:34;-0.13;98.02
69823;SHT31;57119;52.516;13.508;2022-11-20T07:28:00;-0.04;97.77
69823;SHT31;57119;52.516;13.508;2022-11-20T07:30:29;-0.01;97.52
69823;SHT31;57119;52.516;13.508;2022-11-20T07:32:56;-0.04;97.61
69823;SHT31;57119;52.516;13.508;2022-11-20T07:35:22;-0.04;97.48
69823;SHT31;57119;52.516;13.508;2022-11-20T07:37:48;0.00;97.69
69823;SHT31;57119;52.516;13.508;2022-11-20T07:40:14;0.06;97.45
69823;SHT31;57119;52.516;13.508;2022-11-20T07:42:54;0.09;97.08
69823;SHT31;57119;52.516;13.508;2022-11-20T07:45:22;0.06;97.18
69823;SHT31;57119;52.516;13.508;2022-11-20T07:47:48;0.10;97.25
69823;SHT31;57119;52.516;13.508;2022-11-20T07:50:14;0.16;97.16
69823;SHT31;57119;52.516;13.508;2022-11-20T07:52:40;0.21;96.90
69823;SHT31;57119;52.516;13.508;2022-11-20T07:55:06;0.06;96.41
69823;SHT31;57119;52.516;13.508;2022-11-20T07:57:32;0.03;96.78
69823;SHT31;57119;52.516;13.508;2022-11-20T07:59:57;0.09;96.59
69823;SHT31;57119;52.516;13.508;2022-11-20T08:02:22;0.05;96.47
69823;SHT31;57119;52.516;13.508;2022-11-20T08:04:48;0.07;96.64
69823;SHT31;57119;52.516;13.508;2022-11-20T08:07:13;0.03;96.63
69823;SHT31;57119;52.516;13.508;2022-11-20T08:09:38;0.00;96.40
69823;SHT31;57119;52.516;13.508;2022-11-20T08:12:04;0.05;96.24
69823;SHT31;57119;52.516;13.508;2022-11-20T08:14:47;0.02;96.09
69823;SHT31;57119;52.516;13.508;2022-11-20T08:17:13;-0.03;96.09
69823;SHT31;57119;52.516;13.508;2022-11-20T08:19:38;0.10;95.91
69823;SHT31;57119;52.516;13.508;2022-11-20T08:22:04;0.02;96.02
69823;SHT31;57119;52.516;13.508;2022-11-20T08:24:29;0.26;95.86
69823;SHT31;57119;52.516;13.508;2022-11-20T08:26:57;0.05;95.89
69823;SHT31;57119;52.516;13.508;2022-11-20T08:29:24;0.24;95.78
69823;SHT31;57119;52.516;13.508;2022-11-20T08:31:49;0.30;95.58
69823;SHT31;57119;52.516;13.508;2022-11-20T08:34:15;0.28;95.39
69823;SHT31;57119;52.516;13.508;2022-11-20T08:36:40;0.43;95.48
69823;SHT31;57119;52.516;13.508;2022-11-20T08:39:05;0.37;95.22
69823;SHT31;57119;52.516;13.508;2022-11-20T08:41:31;0.31;95.46
69823;SHT31;57119;52.516;13.508;2022-11-20T08:44:03;0.34;95.53
69823;SHT31;57119;52.516;13.508;2022-11-20T08:46:37;0.36;95.69
69823;SHT31;57119;52.516;13.508;2022-11-20T08:49:04;0.27;95.47
69823;SHT31;57119;52.516;13.508;2022-11-20T08:51:29;0.27;95.90
69823;SHT31;57119;52.516;13.508;2022-11-20T08:53:55;0.26;96.00
69823;SHT31;57119;52.516;13.508;2022-11-20T08:56:20;0.33;96.07
69823;SHT31;57119;52.516;13.508;2022-11-20T08:58:46;0.38;95.48
69823;SHT31;57119;52.516;13.508;2022-11-20T09:01:11;0.38;95.98
69823;SHT31;57119;52.516;13.508;2022-11-20T09:03:36;0.54;95.72
69823;SHT31;57119;52.516;13.508;2022-11-20T09:06:04;0.58;95.35
69823;SHT31;57119;52.516;13.508;2022-11-20T09:08:30;0.58;96.06
69823;SHT31;57119;52.516;13.508;2022-11-20T09:10:56;0.69;95.00
69823;SHT31;57119;52.516;13.508;2022-11-20T09:13:22;0.51;94.79
69823;SHT31;57119;52.516;13.508;2022-11-20T09:16:03;0.55;95.17
69823;SHT31;57119;52.516;13.508;2022-11-20T09:18:30;0.58;95.30
69823;SHT31;57119;52.516;13.508;2022-11-20T09:21:00;0.53;95.57
69823;SHT31;57119;52.516;13.508;2022-11-20T09:23:27;0.51;95.32
69823;SHT31;57119;52.516;13.508;2022-11-20T09:25:55;0.58;95.24
69823;SHT31;57119;52.516;13.508;2022-11-20T09:28:25;0.43;95.11
69823;SHT31;57119;52.516;13.508;2022-11-20T09:30:50;0.40;95.67
69823;SHT31;57119;52.516;13.508;2022-11-20T09:33:16;0.57;95.52
69823;SHT31;57119;52.516;13.508;2022-11-20T09:35:42;0.58;95.40
69823;SHT31;57119;52.516;13.508;2022-11-20T09:38:09;0.60;95.34
69823;SHT31;57119;52.516;13.508;2022-11-20T09:40:38;0.66;95.74
69823;SHT31;57119;52.516;13.508;2022-11-20T09:43:14;0.75;95.21
69823;SHT31;57119;52.516;13.508;2022-11-20T09:46:25;0.75;94.80
69823;SHT31;57119;52.516;13.508;2022-11-20T09:56:37;0.78;93.88
69823;SHT31;57119;52.516;13.508;2022-11-20T09:59:06;0.62;94.17
69823;SHT31;57119;52.516;13.508;2022-11-20T10:01:35;0.81;93.92
69823;SHT31;57119;52.516;13.508;2022-11-20T10:04:04;0.81;93.21
69823;SHT31;57119;52.516;13.508;2022-11-20T10:07:20;0.81;93.34
69823;SHT31;57119;52.516;13.508;2022-11-20T10:09:29;0.88;92.86
69823;SHT31;57119;52.516;13.508;2022-11-20T10:25:39;1.20;91.70
69823;SHT31;57119;52.516;13.508;2022-11-20T10:31:23;1.03;91.57
69823;SHT31;57119;52.516;13.508;2022-11-20T10:33:51;1.04;92.12
69823;SHT31;57119;52.516;13.508;2022-11-20T10:36:21;0.95;92.18
69823;SHT31;57119;52.516;13.508;2022-11-20T10:38:54;0.72;92.56
69823;SHT31;57119;52.516;13.508;2022-11-20T10:41:29;0.86;92.64
69823;SHT31;57119;52.516;13.508;2022-11-20T10:44:05;0.74;92.89
69823;SHT31;57119;52.516;13.508;2022-11-20T10:46:44;0.60;93.40
69823;SHT31;57119;52.516;13.508;2022-11-20T10:49:15;0.83;92.91
69823;SHT31;57119;52.516;13.508;2022-11-20T10:57:05;0.76;92.91
69823;SHT31;57119;52.516;13.508;2022-11-20T11:02:24;1.10;91.96
69823;SHT31;57119;52.516;13.508;2022-11-20T11:04:56;1.41;91.18
69823;SHT31;57119;52.516;13.508;2022-11-20T11:07:27;1.44;91.21
69823;SHT31;57119;52.516;13.508;2022-11-20T11:09:55;1.60;91.30
69823;SHT31;57119;52.516;13.508;2022-11-20T11:12:25;2.13;89.73
69823;SHT31;57119;52.516;13.508;2022-11-20T11:14:56;3.15;86.97
69823;SHT31;57119;52.516;13.508;2022-11-20T11:17:31;3.67;83.68
69823;SHT31;57119;52.516;13.508;2022-11-20T11:20:49;2.88;86.02
69823;SHT31;57119;52.516;13.508;2022-11-20T11:22:48;2.73;86.79
69823;SHT31;57119;52.516;13.508;2022-11-20T11:25:33;2.54;87.69
69823;SHT31;57119;52.516;13.508;2022-11-20T11:28:02;2.67;87.78
69823;SHT31;57119;52.516;13.508;2022-11-20T11:30:29;2.64;86.78
69823;SHT31;57119;52.516;13.508;2022-11-20T11:33:06;2.74;86.97
69823;SHT31;57119;52.516;13.508;2022-11-20T11:35:44;3.22;85.40
69823;SHT31;57119;52.516;13.508;2022-11-20T11:38:16;2.06;87.72
69823;SHT31;57119;52.516;13.508;2022-11-20T11:40:43;2.20;88.19
69823;SHT31;57119;52.516;13.508;2022-11-20T11:43:21;2.03;88.21
69823;SHT31;57119;52.516;13.508;2022-11-20T11:46:27;1.92;89.29
69823;SHT31;57119;52.516;13.508;2022-11-20T11:48:57;1.99;89.43
69823;SHT31;57119;52.516;13.508;2022-11-20T11:51:26;1.99;89.43
69823;SHT31;57119;52.516;13.508;2022-11-20T11:53:54;1.91;89.69
69823;SHT31;57119;52.516;13.508;2022-11-20T11:56:21;1.78;89.78
69823;SHT31;57119;52.516;13.508;2022-11-20T11:58:50;1.71;90.33
69823;SHT31;57119;52.516;13.508;2022-11-20T12:01:33;1.67;90.28
69823;SHT31;57119;52.516;13.508;2022-11-20T12:07:20;1.36;91.73
69823;SHT31;57119;52.516;13.508;2022-11-20T12:09:52;1.26;92.61
69823;SHT31;57119;52.516;13.508;2022-11-20T12:12:27;1.04;93.42
69823;SHT31;57119;52.516;13.508;2022-11-20T12:14:55;1.06;94.28
69823;SHT31;57119;52.516;13.508;2022-11-20T12:17:21;1.10;94.46
69823;SHT31;57119;52.516;13.508;2022-11-20T12:19:46;1.10;94.60
69823;SHT31;57119;52.516;13.508;2022-11-20T12:25:19;1.09;95.73
69823;SHT31;57119;52.516;13.508;2022-11-20T12:28:07;1.13;94.88
69823;SHT31;57119;52.516;13.508;2022-11-20T12:30:41;1.19;95.24
69823;SHT31;57119;52.516;13.508;2022-11-20T12:39:07;1.36;94.61
69823;SHT31;57119;52.516;13.508;2022-11-20T12:41:43;1.51;94.59
69823;SHT31;57119;52.516;13.508;2022-11-20T12:44:47;1.44;94.04
69823;SHT31;57119;52.516;13.508;2022-11-20T12:53:08;1.61;91.97
69823;SHT31;57119;52.516;13.508;2022-11-20T12:55:45;1.79;91.32
69823;SHT31;57119;52.516;13.508;2022-11-20T13:06:58;1.71;90.97
69823;SHT31;57119;52.516;13.508;2022-11-20T13:09:24;1.86;90.79
69823;SHT31;57119;52.516;13.508;2022-11-20T13:12:03;1.83;90.38
69823;SHT31;57119;52.516;13.508;2022-11-20T13:14:40;1.86;90.32
69823;SHT31;57119;52.516;13.508;2022-11-20T13:17:34;2.73;88.50
69823;SHT31;57119;52.516;13.508;2022-11-20T13:20:02;2.73;88.33
69823;SHT31;57119;52.516;13.508;2022-11-20T13:22:54;2.47;88.22
69823;SHT31;57119;52.516;13.508;2022-11-20T13:25:26;2.49;88.67
69823;SHT31;57119;52.516;13.508;2022-11-20T13:27:53;2.29;88.71
69823;SHT31;57119;52.516;13.508;2022-11-20T13:30:21;2.05;89.64
69823;SHT31;57119;52.516;13.508;2022-11-20T13:32:58;2.18;89.57
69823;SHT31;57119;52.516;13.508;2022-11-20T13:35:41;2.15;89.48
69823;SHT31;57119;52.516;13.508;2022-11-20T13:38:14;1.86;90.25
69823;SHT31;57119;52.516;13.508;2022-11-20T13:43:42;1.77;91.09
69823;SHT31;57119;52.516;13.508;2022-11-20T13:46:09;1.71;91.32
69823;SHT31;57119;52.516;13.508;2022-11-20T13:48:40;1.68;91.72
69823;SHT31;57119;52.516;13.508;2022-11-20T13:51:24;1.72;91.96
69823;SHT31;57119;52.516;13.508;2022-11-20T13:56:58;1.64;91.71
69823;SHT31;57119;52.516;13.508;2022-11-20T14:00:27;1.67;92.14
69823;SHT31;57119;52.516;13.508;2022-11-20T14:02:33;1.67;92.53
69823;SHT31;57119;52.516;13.508;2022-11-20T14:04:59;1.54;92.69
69823;SHT31;57119;52.516;13.508;2022-11-20T14:07:34;1.51;92.99
69823;SHT31;57119;52.516;13.508;2022-11-20T14:10:00;1.46;93.56
69823;SHT31;57119;52.516;13.508;2022-11-20T14:12:31;1.47;93.67
69823;SHT31;57119;52.516;13.508;2022-11-20T14:14:57;1.46;93.23
69823;SHT31;57119;52.516;13.508;2022-11-20T14:19:54;1.39;93.84
69823;SHT31;57119;52.516;13.508;2022-11-20T14:22:25;1.44;93.90
69823;SHT31;57119;52.516;13.508;2022-11-20T14:27:41;1.44;94.35
69823;SHT31;57119;52.516;13.508;2022-11-20T14:30:18;1.46;94.39
69823;SHT31;57119;52.516;13.508;2022-11-20T14:32:45;1.41;93.71
69823;SHT31;57119;52.516;13.508;2022-11-20T14:35:17;1.41;94.84
69823;SHT31;57119;52.516;13.508;2022-11-20T14:37:44;1.43;93.88
69823;SHT31;57119;52.516;13.508;2022-11-20T14:40:31;1.39;93.61
69823;SHT31;57119;52.516;13.508;2022-11-20T14:42:58;1.31;93.83
69823;SHT31;57119;52.516;13.508;2022-11-20T14:45:24;1.24;93.84
69823;SHT31;57119;52.516;13.508;2022-11-20T14:47:52;1.22;94.06
69823;SHT31;57119;52.516;13.508;2022-11-20T14:50:26;1.13;94.73
69823;SHT31;57119;52.516;13.508;2022-11-20T14:52:58;1.12;94.69
69823;SHT31;57119;52.516;13.508;2022-11-20T14:58:03;1.16;93.76
69823;SHT31;57119;52.516;13.508;2022-11-20T15:00:30;1.09;93.46
69823;SHT31;57119;52.516;13.508;2022-11-20T15:02:56;1.07;93.00
69823;SHT31;57119;52.516;13.508;2022-11-20T15:05:36;1.04;93.04
69823;SHT31;57119;52.516;13.508;2022-11-20T15:08:09;1.04;93.85
69823;SHT31;57119;52.516;13.508;2022-11-20T15:10:35;1.06;93.43
69823;SHT31;57119;52.516;13.508;2022-11-20T15:13:11;1.04;93.68
69823;SHT31;57119;52.516;13.508;2022-11-20T15:15:50;1.00;92.72
69823;SHT31;57119;52.516;13.508;2022-11-20T15:18:19;1.06;93.24
69823;SHT31;57119;52.516;13.508;2022-11-20T15:20:46;1.07;92.84
69823;SHT31;57119;52.516;13.508;2022-11-20T15:23:13;1.07;92.77
69823;SHT31;57119;52.516;13.508;2022-11-20T15:25:39;1.06;92.56
69823;SHT31;57119;52.516;13.508;2022-11-20T15:28:30;1.03;92.66
69823;SHT31;57119;52.516;13.508;2022-11-20T15:30:56;1.04;93.13
69823;SHT31;57119;52.516;13.508;2022-11-20T15:33:21;1.09;93.15
69823;SHT31;57119;52.516;13.508;2022-11-20T15:35:47;1.07;92.98
69823;SHT31;57119;52.516;13.508;2022-11-20T15:38:12;1.06;92.72
69823;SHT31;57119;52.516;13.508;2022-11-20T15:40:37;1.07;92.83
69823;SHT31;57119;52.516;13.508;2022-11-20T15:43:03;1.03;93.17
69823;SHT31;57119;52.516;13.508;2022-11-20T15:45:37;1.12;93.16
69823;SHT31;57119;52.516;13.508;2022-11-20T15:48:04;1.12;92.81
69823;SHT31;57119;52.516;13.508;2022-11-20T15:50:37;1.13;92.87
69823;SHT31;57119;52.516;13.508;2022-11-20T15:53:03;1.15;93.08
69823;SHT31;57119;52.516;13.508;2022-11-20T15:55:28;1.16;93.37
69823;SHT31;57119;52.516;13.508;2022-11-20T15:57:54;1.15;93.19
69823;SHT31;57119;52.516;13.508;2022-11-20T16:00:19;1.17;93.18
69823;SHT31;57119;52.516;13.508;2022-11-20T16:02:44;1.20;93.10
69823;SHT31;57119;52.516;13.508;2022-11-20T16:05:11;1.20;93.11
69823;SHT31;57119;52.516;13.508;2022-11-20T16:07:37;1.19;93.09
69823;SHT31;57119;52.516;13.508;2022-11-20T16:10:03;1.10;93.03
69823;SHT31;57119;52.516;13.508;2022-11-20T16:12:28;0.88;93.14
69823;SHT31;57119;52.516;13.508;2022-11-20T16:15:12;0.79;93.64
69823;SHT31;57119;52.516;13.508;2022-11-20T16:17:56;0.65;93.67
69823;SHT31;57119;52.516;13.508;2022-11-20T16:20:21;0.55;94.14
69823;SHT31;57119;52.516;13.508;2022-11-20T16:22:47;0.47;94.60
69823;SHT31;57119;52.516;13.508;2022-11-20T16:25:12;0.40;94.99
69823;SHT31;57119;52.516;13.508;2022-11-20T16:27:37;0.33;95.15
69823;SHT31;57119;52.516;13.508;2022-11-20T16:30:03;0.24;95.42
69823;SHT31;57119;52.516;13.508;2022-11-20T16:32:29;0.13;95.86
69823;SHT31;57119;52.516;13.508;2022-11-20T16:34:54;0.10;95.89
69823;SHT31;57119;52.516;13.508;2022-11-20T16:37:19;0.11;95.70
69823;SHT31;57119;52.516;13.508;2022-11-20T16:39:45;0.09;95.90
69823;SHT31;57119;52.516;13.508;2022-11-20T16:42:10;0.03;96.10
69823;SHT31;57119;52.516;13.508;2022-11-20T16:44:36;0.02;96.07
69823;SHT31;57119;52.516;13.508;2022-11-20T16:47:01;0.02;96.08
69823;SHT31;57119;52.516;13.508;2022-11-20T16:49:26;-0.10;96.22
69823;SHT31;57119;52.516;13.508;2022-11-20T16:51:52;-0.10;95.98
69823;SHT31;57119;52.516;13.508;2022-11-20T16:54:17;-0.10;96.05
69823;SHT31;57119;52.516;13.508;2022-11-20T16:56:42;-0.17;96.20
69823;SHT31;57119;52.516;13.508;2022-11-20T16:59:08;-0.11;96.03